Hub


Voltar

 INFORMAÇÕES METEOROLÓGICAS

METAR FOR PAOH


ADDS - METARS form results

(2021 UTC 17 January 2019)
Data provider http://aviationweather.gov/metar/data/
 
METAR text: PAOH 171956Z AUTO 10017G24KT 10SM CLR 02/M06 A2961 RMK AO2 PK WND 10026/1924 SLP027 T00221061 FZRANO
Conditions at: PAOH (HOONAH , AK, US) observed 1956 UTC 17 January 2019
Temperature: 2.2°C (36°F)
Dewpoint: -6.1°C (21°F) [RH = 54%]
Pressure (altimeter): 29.61 inches Hg (1002.8 mb)
[Sea-level pressure: 1002.7 mb]
Winds: from the E (100 degrees) at 20 MPH (17 knots; 8.7 m/s)
gusting to 28 MPH (24 knots; 12.3 m/s)
Visibility: 10 or more miles (16+ km)
Ceiling: at least 12,000 feet AGL
Clouds: sky clear below 12,000 feet AGL
Weather: automated observation with no human augmentation;
there may or may not be significant weather present at this time


 MAPA DO AEROPORTO


 INFORMAÇÕES DA PISTA

Pista 06 Tamanho da pista 2997 ft Largura da pista 75 ft
Elevação da pista 15 ft Ranhura da pista 0 ft Proa da pista 78
Pista 24 Tamanho da pista 2997 ft Largura da pista 75 ft
Elevação da pista 19 ft Ranhura da pista 0 ft Proa da pista 258

 FREQUÊNCIAS DO AEROPORTO


 AUXÍLIOS DE NAVEGAÇÃO PRÓXIMOS AO AEROPORTO

Tipo VORTAC Nome Sisters Island Frequência 114000 KHZ